sensor_id;sensor_type;location;lat;lon;timestamp;P1;durP1;ratioP1;P2;durP2;ratioP2
66874;SDS011;53784;52.630;4.896;2023-03-17T00:00:41;4.75;;;2.30;;
66874;SDS011;53784;52.630;4.896;2023-03-17T00:03:10;7.63;;;2.50;;
66874;SDS011;53784;52.630;4.896;2023-03-17T00:05:40;4.63;;;2.53;;
66874;SDS011;53784;52.630;4.896;2023-03-17T00:08:15;4.85;;;2.30;;
66874;SDS011;53784;52.630;4.896;2023-03-17T00:10:43;4.90;;;2.42;;
66874;SDS011;53784;52.630;4.896;2023-03-17T00:13:08;5.47;;;2.50;;
66874;SDS011;53784;52.630;4.896;2023-03-17T00:15:34;5.10;;;2.30;;
66874;SDS011;53784;52.630;4.896;2023-03-17T00:17:59;6.60;;;2.30;;
66874;SDS011;53784;52.630;4.896;2023-03-17T00:20:25;5.17;;;2.20;;
66874;SDS011;53784;52.630;4.896;2023-03-17T00:22:51;4.97;;;2.55;;
66874;SDS011;53784;52.630;4.896;2023-03-17T00:25:18;6.80;;;2.38;;
66874;SDS011;53784;52.630;4.896;2023-03-17T00:27:44;5.78;;;2.85;;
66874;SDS011;53784;52.630;4.896;2023-03-17T00:30:10;4.87;;;2.37;;
66874;SDS011;53784;52.630;4.896;2023-03-17T00:32:35;5.28;;;2.20;;
66874;SDS011;53784;52.630;4.896;2023-03-17T00:35:01;5.90;;;2.38;;
66874;SDS011;53784;52.630;4.896;2023-03-17T00:37:29;5.47;;;2.42;;
66874;SDS011;53784;52.630;4.896;2023-03-17T00:39:55;6.40;;;2.70;;
66874;SDS011;53784;52.630;4.896;2023-03-17T00:42:21;6.10;;;2.63;;
66874;SDS011;53784;52.630;4.896;2023-03-17T00:44:49;5.60;;;2.63;;
66874;SDS011;53784;52.630;4.896;2023-03-17T00:47:15;5.43;;;2.35;;
66874;SDS011;53784;52.630;4.896;2023-03-17T00:49:40;5.18;;;2.53;;
66874;SDS011;53784;52.630;4.896;2023-03-17T00:52:05;7.00;;;2.60;;
66874;SDS011;53784;52.630;4.896;2023-03-17T00:54:31;6.53;;;2.80;;
66874;SDS011;53784;52.630;4.896;2023-03-17T00:56:56;5.23;;;2.40;;
66874;SDS011;53784;52.630;4.896;2023-03-17T00:59:26;4.63;;;2.40;;
66874;SDS011;53784;52.630;4.896;2023-03-17T01:01:52;5.15;;;2.70;;
66874;SDS011;53784;52.630;4.896;2023-03-17T01:04:17;5.97;;;2.67;;
66874;SDS011;53784;52.630;4.896;2023-03-17T01:06:43;6.28;;;2.70;;
66874;SDS011;53784;52.630;4.896;2023-03-17T01:09:15;6.32;;;2.60;;
66874;SDS011;53784;52.630;4.896;2023-03-17T01:11:40;5.13;;;2.55;;
66874;SDS011;53784;52.630;4.896;2023-03-17T01:14:07;5.68;;;2.53;;
66874;SDS011;53784;52.630;4.896;2023-03-17T01:16:33;5.00;;;2.53;;
66874;SDS011;53784;52.630;4.896;2023-03-17T01:18:58;5.90;;;2.40;;
66874;SDS011;53784;52.630;4.896;2023-03-17T01:21:24;6.78;;;2.85;;
66874;SDS011;53784;52.630;4.896;2023-03-17T01:23:50;6.63;;;2.60;;
66874;SDS011;53784;52.630;4.896;2023-03-17T01:26:15;5.73;;;2.60;;
66874;SDS011;53784;52.630;4.896;2023-03-17T01:28:40;5.33;;;2.53;;
66874;SDS011;53784;52.630;4.896;2023-03-17T01:31:07;7.15;;;2.65;;
66874;SDS011;53784;52.630;4.896;2023-03-17T01:33:32;5.07;;;2.50;;
66874;SDS011;53784;52.630;4.896;2023-03-17T01:35:57;6.85;;;2.72;;
66874;SDS011;53784;52.630;4.896;2023-03-17T01:38:22;6.57;;;2.67;;
66874;SDS011;53784;52.630;4.896;2023-03-17T01:40:49;7.63;;;3.00;;
66874;SDS011;53784;52.630;4.896;2023-03-17T01:43:18;5.63;;;2.85;;
66874;SDS011;53784;52.630;4.896;2023-03-17T01:48:28;6.70;;;2.78;;
66874;SDS011;53784;52.630;4.896;2023-03-17T01:50:55;5.38;;;2.72;;
66874;SDS011;53784;52.630;4.896;2023-03-17T01:53:23;6.50;;;2.80;;
66874;SDS011;53784;52.630;4.896;2023-03-17T01:55:49;5.20;;;2.58;;
66874;SDS011;53784;52.630;4.896;2023-03-17T01:58:15;6.20;;;2.72;;
66874;SDS011;53784;52.630;4.896;2023-03-17T02:00:41;7.35;;;2.88;;
66874;SDS011;53784;52.630;4.896;2023-03-17T02:03:07;6.75;;;2.78;;
66874;SDS011;53784;52.630;4.896;2023-03-17T02:05:33;5.70;;;2.97;;
66874;SDS011;53784;52.630;4.896;2023-03-17T02:07:59;6.47;;;3.15;;
66874;SDS011;53784;52.630;4.896;2023-03-17T02:10:24;8.13;;;3.40;;
66874;SDS011;53784;52.630;4.896;2023-03-17T02:12:58;8.55;;;3.33;;
66874;SDS011;53784;52.630;4.896;2023-03-17T02:15:34;5.93;;;2.80;;
66874;SDS011;53784;52.630;4.896;2023-03-17T02:17:59;6.85;;;3.00;;
66874;SDS011;53784;52.630;4.896;2023-03-17T02:22:50;7.60;;;3.10;;
66874;SDS011;53784;52.630;4.896;2023-03-17T02:25:16;5.85;;;2.72;;
66874;SDS011;53784;52.630;4.896;2023-03-17T02:27:44;6.00;;;2.97;;
66874;SDS011;53784;52.630;4.896;2023-03-17T02:30:11;7.47;;;3.05;;
66874;SDS011;53784;52.630;4.896;2023-03-17T02:32:37;5.20;;;2.90;;
66874;SDS011;53784;52.630;4.896;2023-03-17T02:35:04;5.90;;;2.97;;
66874;SDS011;53784;52.630;4.896;2023-03-17T02:37:29;5.53;;;2.90;;
66874;SDS011;53784;52.630;4.896;2023-03-17T02:39:55;6.50;;;3.10;;
66874;SDS011;53784;52.630;4.896;2023-03-17T02:42:20;7.68;;;3.25;;
66874;SDS011;53784;52.630;4.896;2023-03-17T02:44:49;6.80;;;2.90;;
66874;SDS011;53784;52.630;4.896;2023-03-17T02:47:15;6.00;;;2.90;;
66874;SDS011;53784;52.630;4.896;2023-03-17T02:49:41;6.22;;;2.80;;
66874;SDS011;53784;52.630;4.896;2023-03-17T02:52:07;5.47;;;2.92;;
66874;SDS011;53784;52.630;4.896;2023-03-17T02:54:32;6.20;;;3.00;;
66874;SDS011;53784;52.630;4.896;2023-03-17T02:56:57;5.20;;;2.75;;
66874;SDS011;53784;52.630;4.896;2023-03-17T02:59:23;6.78;;;2.63;;
66874;SDS011;53784;52.630;4.896;2023-03-17T03:01:48;6.33;;;3.07;;
66874;SDS011;53784;52.630;4.896;2023-03-17T03:04:14;7.80;;;2.80;;
66874;SDS011;53784;52.630;4.896;2023-03-17T03:06:40;6.22;;;2.95;;
66874;SDS011;53784;52.630;4.896;2023-03-17T03:09:07;9.82;;;2.80;;
66874;SDS011;53784;52.630;4.896;2023-03-17T03:11:33;5.57;;;2.90;;
66874;SDS011;53784;52.630;4.896;2023-03-17T03:13:58;5.65;;;2.90;;
66874;SDS011;53784;52.630;4.896;2023-03-17T03:16:23;5.90;;;3.10;;
66874;SDS011;53784;52.630;4.896;2023-03-17T03:18:49;7.22;;;3.10;;
66874;SDS011;53784;52.630;4.896;2023-03-17T03:21:14;4.82;;;2.83;;
66874;SDS011;53784;52.630;4.896;2023-03-17T03:23:39;6.50;;;2.67;;
66874;SDS011;53784;52.630;4.896;2023-03-17T03:26:04;5.68;;;2.80;;
66874;SDS011;53784;52.630;4.896;2023-03-17T03:28:30;5.82;;;2.70;;
66874;SDS011;53784;52.630;4.896;2023-03-17T03:30:57;6.00;;;3.00;;
66874;SDS011;53784;52.630;4.896;2023-03-17T03:33:22;6.28;;;2.83;;
66874;SDS011;53784;52.630;4.896;2023-03-17T03:35:47;7.37;;;3.10;;
66874;SDS011;53784;52.630;4.896;2023-03-17T03:38:12;6.25;;;2.72;;
66874;SDS011;53784;52.630;4.896;2023-03-17T03:40:38;5.50;;;2.67;;
66874;SDS011;53784;52.630;4.896;2023-03-17T03:43:03;5.50;;;2.80;;
66874;SDS011;53784;52.630;4.896;2023-03-17T03:45:28;5.80;;;2.63;;
66874;SDS011;53784;52.630;4.896;2023-03-17T03:47:54;5.13;;;2.65;;
66874;SDS011;53784;52.630;4.896;2023-03-17T03:50:19;6.30;;;2.72;;
66874;SDS011;53784;52.630;4.896;2023-03-17T03:52:44;5.32;;;2.53;;
66874;SDS011;53784;52.630;4.896;2023-03-17T03:55:10;4.97;;;2.53;;
66874;SDS011;53784;52.630;4.896;2023-03-17T03:57:36;5.72;;;2.92;;
66874;SDS011;53784;52.630;4.896;2023-03-17T04:00:01;5.90;;;2.80;;
66874;SDS011;53784;52.630;4.896;2023-03-17T04:02:27;5.90;;;2.55;;
66874;SDS011;53784;52.630;4.896;2023-03-17T04:04:52;6.33;;;2.90;;
66874;SDS011;53784;52.630;4.896;2023-03-17T04:07:18;5.47;;;2.80;;
66874;SDS011;53784;52.630;4.896;2023-03-17T04:09:45;6.13;;;2.67;;
66874;SDS011;53784;52.630;4.896;2023-03-17T04:12:10;4.30;;;2.50;;
66874;SDS011;53784;52.630;4.896;2023-03-17T04:14:37;5.88;;;2.70;;
66874;SDS011;53784;52.630;4.896;2023-03-17T04:17:02;6.90;;;2.70;;
66874;SDS011;53784;52.630;4.896;2023-03-17T04:19:29;6.13;;;2.78;;
66874;SDS011;53784;52.630;4.896;2023-03-17T04:21:54;7.65;;;2.90;;
66874;SDS011;53784;52.630;4.896;2023-03-17T04:24:20;5.50;;;2.55;;
66874;SDS011;53784;52.630;4.896;2023-03-17T04:26:45;6.10;;;2.50;;
66874;SDS011;53784;52.630;4.896;2023-03-17T04:29:10;6.35;;;2.67;;
66874;SDS011;53784;52.630;4.896;2023-03-17T04:31:39;4.68;;;2.47;;
66874;SDS011;53784;52.630;4.896;2023-03-17T04:34:05;4.70;;;2.22;;
66874;SDS011;53784;52.630;4.896;2023-03-17T04:36:31;6.40;;;2.80;;
66874;SDS011;53784;52.630;4.896;2023-03-17T04:38:56;7.85;;;2.63;;
66874;SDS011;53784;52.630;4.896;2023-03-17T04:41:22;5.60;;;2.60;;
66874;SDS011;53784;52.630;4.896;2023-03-17T04:43:47;5.88;;;2.40;;
66874;SDS011;53784;52.630;4.896;2023-03-17T04:46:12;5.95;;;2.70;;
66874;SDS011;53784;52.630;4.896;2023-03-17T04:48:37;6.47;;;2.60;;
66874;SDS011;53784;52.630;4.896;2023-03-17T04:51:03;5.23;;;2.40;;
66874;SDS011;53784;52.630;4.896;2023-03-17T04:53:28;5.40;;;2.67;;
66874;SDS011;53784;52.630;4.896;2023-03-17T04:55:54;7.05;;;2.80;;
66874;SDS011;53784;52.630;4.896;2023-03-17T04:58:20;6.35;;;2.80;;
66874;SDS011;53784;52.630;4.896;2023-03-17T05:00:45;6.68;;;2.70;;
66874;SDS011;53784;52.630;4.896;2023-03-17T05:03:11;5.60;;;2.65;;
66874;SDS011;53784;52.630;4.896;2023-03-17T05:05:36;5.65;;;2.47;;
66874;SDS011;53784;52.630;4.896;2023-03-17T05:08:02;5.93;;;3.00;;
66874;SDS011;53784;52.630;4.896;2023-03-17T05:10:27;6.77;;;2.73;;
66874;SDS011;53784;52.630;4.896;2023-03-17T05:12:52;6.30;;;2.80;;
66874;SDS011;53784;52.630;4.896;2023-03-17T05:15:17;7.80;;;2.70;;
66874;SDS011;53784;52.630;4.896;2023-03-17T05:17:44;5.85;;;2.85;;
66874;SDS011;53784;52.630;4.896;2023-03-17T05:20:09;5.80;;;2.63;;
66874;SDS011;53784;52.630;4.896;2023-03-17T05:22:35;6.13;;;2.80;;
66874;SDS011;53784;52.630;4.896;2023-03-17T05:25:00;6.13;;;2.70;;
66874;SDS011;53784;52.630;4.896;2023-03-17T05:27:25;6.73;;;2.97;;
66874;SDS011;53784;52.630;4.896;2023-03-17T05:29:51;6.50;;;2.70;;
66874;SDS011;53784;52.630;4.896;2023-03-17T05:32:16;6.72;;;3.00;;
66874;SDS011;53784;52.630;4.896;2023-03-17T05:34:42;5.28;;;2.70;;
66874;SDS011;53784;52.630;4.896;2023-03-17T05:37:09;6.47;;;2.75;;
66874;SDS011;53784;52.630;4.896;2023-03-17T05:39:34;5.28;;;2.72;;
66874;SDS011;53784;52.630;4.896;2023-03-17T05:41:59;6.07;;;3.17;;
66874;SDS011;53784;52.630;4.896;2023-03-17T05:44:24;8.13;;;3.13;;
66874;SDS011;53784;52.630;4.896;2023-03-17T05:46:49;6.87;;;3.00;;
66874;SDS011;53784;52.630;4.896;2023-03-17T05:49:15;7.93;;;2.53;;
66874;SDS011;53784;52.630;4.896;2023-03-17T05:51:40;6.50;;;2.87;;
66874;SDS011;53784;52.630;4.896;2023-03-17T05:54:06;7.28;;;3.00;;
66874;SDS011;53784;52.630;4.896;2023-03-17T05:56:32;7.28;;;3.00;;
66874;SDS011;53784;52.630;4.896;2023-03-17T05:59:00;5.90;;;2.93;;
66874;SDS011;53784;52.630;4.896;2023-03-17T06:01:26;6.28;;;3.08;;
66874;SDS011;53784;52.630;4.896;2023-03-17T06:04:00;7.07;;;3.10;;
66874;SDS011;53784;52.630;4.896;2023-03-17T06:06:28;7.88;;;3.10;;
66874;SDS011;53784;52.630;4.896;2023-03-17T06:08:53;5.60;;;2.80;;
66874;SDS011;53784;52.630;4.896;2023-03-17T06:11:18;6.38;;;2.75;;
66874;SDS011;53784;52.630;4.896;2023-03-17T06:13:45;5.60;;;2.72;;
66874;SDS011;53784;52.630;4.896;2023-03-17T06:16:10;6.30;;;2.60;;
66874;SDS011;53784;52.630;4.896;2023-03-17T06:18:36;7.45;;;3.00;;
66874;SDS011;53784;52.630;4.896;2023-03-17T06:21:01;6.17;;;2.90;;
66874;SDS011;53784;52.630;4.896;2023-03-17T06:23:26;5.73;;;2.73;;
66874;SDS011;53784;52.630;4.896;2023-03-17T06:25:51;5.80;;;3.20;;
66874;SDS011;53784;52.630;4.896;2023-03-17T06:28:16;5.47;;;3.27;;
66874;SDS011;53784;52.630;4.896;2023-03-17T06:30:42;7.28;;;3.03;;
66874;SDS011;53784;52.630;4.896;2023-03-17T06:33:07;8.53;;;3.40;;
66874;SDS011;53784;52.630;4.896;2023-03-17T06:35:32;7.07;;;3.15;;
66874;SDS011;53784;52.630;4.896;2023-03-17T06:37:58;5.72;;;3.03;;
66874;SDS011;53784;52.630;4.896;2023-03-17T06:40:24;6.05;;;2.95;;
66874;SDS011;53784;52.630;4.896;2023-03-17T06:42:51;6.60;;;3.03;;
66874;SDS011;53784;52.630;4.896;2023-03-17T06:45:16;7.95;;;3.08;;
66874;SDS011;53784;52.630;4.896;2023-03-17T06:47:41;5.22;;;2.70;;
66874;SDS011;53784;52.630;4.896;2023-03-17T06:50:07;7.05;;;2.70;;
66874;SDS011;53784;52.630;4.896;2023-03-17T06:52:36;7.85;;;2.55;;
66874;SDS011;53784;52.630;4.896;2023-03-17T06:55:03;6.68;;;2.75;;
66874;SDS011;53784;52.630;4.896;2023-03-17T06:57:28;8.60;;;3.17;;
66874;SDS011;53784;52.630;4.896;2023-03-17T06:59:53;6.13;;;2.93;;
66874;SDS011;53784;52.630;4.896;2023-03-17T07:02:19;5.07;;;2.67;;
66874;SDS011;53784;52.630;4.896;2023-03-17T07:04:44;6.23;;;2.90;;
66874;SDS011;53784;52.630;4.896;2023-03-17T07:07:09;6.30;;;2.67;;
66874;SDS011;53784;52.630;4.896;2023-03-17T07:09:34;6.30;;;2.85;;
66874;SDS011;53784;52.630;4.896;2023-03-17T07:12:00;6.10;;;2.80;;
66874;SDS011;53784;52.630;4.896;2023-03-17T07:14:30;5.82;;;2.65;;
66874;SDS011;53784;52.630;4.896;2023-03-17T07:16:56;6.50;;;2.80;;
66874;SDS011;53784;52.630;4.896;2023-03-17T07:19:23;5.28;;;2.70;;
66874;SDS011;53784;52.630;4.896;2023-03-17T07:21:48;6.60;;;2.83;;
66874;SDS011;53784;52.630;4.896;2023-03-17T07:24:14;6.68;;;2.90;;
66874;SDS011;53784;52.630;4.896;2023-03-17T07:26:39;4.82;;;2.42;;
66874;SDS011;53784;52.630;4.896;2023-03-17T07:29:04;6.47;;;3.00;;
66874;SDS011;53784;52.630;4.896;2023-03-17T07:31:32;6.43;;;2.75;;
66874;SDS011;53784;52.630;4.896;2023-03-17T07:33:58;7.47;;;2.90;;
66874;SDS011;53784;52.630;4.896;2023-03-17T07:36:23;5.53;;;3.20;;
66874;SDS011;53784;52.630;4.896;2023-03-17T07:38:48;8.80;;;3.10;;
66874;SDS011;53784;52.630;4.896;2023-03-17T07:41:14;5.93;;;2.80;;
66874;SDS011;53784;52.630;4.896;2023-03-17T07:43:39;6.87;;;2.90;;
66874;SDS011;53784;52.630;4.896;2023-03-17T07:46:04;7.43;;;3.30;;
66874;SDS011;53784;52.630;4.896;2023-03-17T07:48:29;6.28;;;3.03;;
66874;SDS011;53784;52.630;4.896;2023-03-17T07:50:55;7.20;;;3.60;;
66874;SDS011;53784;52.630;4.896;2023-03-17T07:53:22;6.57;;;3.03;;
66874;SDS011;53784;52.630;4.896;2023-03-17T07:55:47;6.82;;;3.50;;
66874;SDS011;53784;52.630;4.896;2023-03-17T07:58:12;7.03;;;3.13;;
66874;SDS011;53784;52.630;4.896;2023-03-17T08:00:37;7.03;;;2.80;;
66874;SDS011;53784;52.630;4.896;2023-03-17T08:03:03;7.18;;;3.08;;
66874;SDS011;53784;52.630;4.896;2023-03-17T08:05:28;7.13;;;3.00;;
66874;SDS011;53784;52.630;4.896;2023-03-17T08:07:54;5.57;;;2.90;;
66874;SDS011;53784;52.630;4.896;2023-03-17T08:10:20;6.63;;;3.00;;
66874;SDS011;53784;52.630;4.896;2023-03-17T08:12:45;6.45;;;3.00;;
66874;SDS011;53784;52.630;4.896;2023-03-17T08:15:15;7.53;;;3.10;;
66874;SDS011;53784;52.630;4.896;2023-03-17T08:17:41;6.53;;;2.85;;
66874;SDS011;53784;52.630;4.896;2023-03-17T08:20:06;8.25;;;3.40;;
66874;SDS011;53784;52.630;4.896;2023-03-17T08:22:32;7.25;;;2.97;;
66874;SDS011;53784;52.630;4.896;2023-03-17T08:24:57;6.20;;;3.07;;
66874;SDS011;53784;52.630;4.896;2023-03-17T08:27:23;7.13;;;2.97;;
66874;SDS011;53784;52.630;4.896;2023-03-17T08:29:48;6.80;;;3.10;;
66874;SDS011;53784;52.630;4.896;2023-03-17T08:32:15;6.35;;;3.25;;
66874;SDS011;53784;52.630;4.896;2023-03-17T08:34:40;7.33;;;3.37;;
66874;SDS011;53784;52.630;4.896;2023-03-17T08:37:05;7.20;;;3.50;;
66874;SDS011;53784;52.630;4.896;2023-03-17T08:39:31;7.03;;;3.28;;
66874;SDS011;53784;52.630;4.896;2023-03-17T08:41:56;7.30;;;3.35;;
66874;SDS011;53784;52.630;4.896;2023-03-17T08:44:22;5.75;;;3.13;;
66874;SDS011;53784;52.630;4.896;2023-03-17T08:46:47;5.78;;;3.30;;
66874;SDS011;53784;52.630;4.896;2023-03-17T08:49:13;6.60;;;3.45;;
66874;SDS011;53784;52.630;4.896;2023-03-17T08:51:39;6.47;;;3.28;;
66874;SDS011;53784;52.630;4.896;2023-03-17T08:54:04;7.43;;;3.55;;
66874;SDS011;53784;52.630;4.896;2023-03-17T08:56:30;7.60;;;3.47;;
66874;SDS011;53784;52.630;4.896;2023-03-17T08:58:56;6.32;;;3.30;;
66874;SDS011;53784;52.630;4.896;2023-03-17T09:01:22;7.68;;;3.50;;
66874;SDS011;53784;52.630;4.896;2023-03-17T09:03:50;8.70;;;3.45;;
66874;SDS011;53784;52.630;4.896;2023-03-17T09:06:15;8.55;;;3.50;;
66874;SDS011;53784;52.630;4.896;2023-03-17T09:08:41;8.03;;;3.50;;
66874;SDS011;53784;52.630;4.896;2023-03-17T09:11:15;8.35;;;3.97;;
66874;SDS011;53784;52.630;4.896;2023-03-17T09:13:42;9.15;;;3.58;;
66874;SDS011;53784;52.630;4.896;2023-03-17T09:16:07;6.85;;;3.40;;
66874;SDS011;53784;52.630;4.896;2023-03-17T09:18:34;6.22;;;3.60;;
66874;SDS011;53784;52.630;4.896;2023-03-17T09:20:59;8.32;;;3.80;;
66874;SDS011;53784;52.630;4.896;2023-03-17T09:23:26;7.00;;;3.55;;
66874;SDS011;53784;52.630;4.896;2023-03-17T09:25:51;9.30;;;4.00;;
66874;SDS011;53784;52.630;4.896;2023-03-17T09:28:16;6.00;;;3.70;;
66874;SDS011;53784;52.630;4.896;2023-03-17T09:30:42;8.43;;;4.00;;
66874;SDS011;53784;52.630;4.896;2023-03-17T09:33:08;6.25;;;3.80;;
66874;SDS011;53784;52.630;4.896;2023-03-17T09:35:34;8.80;;;4.28;;
66874;SDS011;53784;52.630;4.896;2023-03-17T09:37:59;7.63;;;4.28;;
66874;SDS011;53784;52.630;4.896;2023-03-17T09:40:32;7.70;;;4.00;;
66874;SDS011;53784;52.630;4.896;2023-03-17T09:43:13;6.45;;;4.00;;
66874;SDS011;53784;52.630;4.896;2023-03-17T09:45:40;7.70;;;4.30;;
66874;SDS011;53784;52.630;4.896;2023-03-17T09:50:59;7.75;;;4.22;;
66874;SDS011;53784;52.630;4.896;2023-03-17T09:53:27;8.05;;;4.15;;
66874;SDS011;53784;52.630;4.896;2023-03-17T09:55:56;5.35;;;3.95;;
66874;SDS011;53784;52.630;4.896;2023-03-17T09:58:32;8.18;;;4.05;;
66874;SDS011;53784;52.630;4.896;2023-03-17T10:00:58;6.38;;;4.13;;
66874;SDS011;53784;52.630;4.896;2023-03-17T10:03:23;6.55;;;4.00;;
66874;SDS011;53784;52.630;4.896;2023-03-17T10:05:49;6.55;;;4.30;;
66874;SDS011;53784;52.630;4.896;2023-03-17T10:16:09;7.28;;;4.05;;
66874;SDS011;53784;52.630;4.896;2023-03-17T10:18:52;6.55;;;4.03;;
66874;SDS011;53784;52.630;4.896;2023-03-17T10:21:19;6.82;;;4.07;;
66874;SDS011;53784;52.630;4.896;2023-03-17T10:23:48;6.93;;;4.25;;
66874;SDS011;53784;52.630;4.896;2023-03-17T10:28:45;7.07;;;4.10;;
66874;SDS011;53784;52.630;4.896;2023-03-17T10:31:17;7.00;;;4.07;;
66874;SDS011;53784;52.630;4.896;2023-03-17T10:33:43;6.63;;;3.90;;
66874;SDS011;53784;52.630;4.896;2023-03-17T10:36:13;7.53;;;4.13;;
66874;SDS011;53784;52.630;4.896;2023-03-17T10:38:40;6.80;;;4.38;;
66874;SDS011;53784;52.630;4.896;2023-03-17T10:41:12;7.55;;;4.13;;
66874;SDS011;53784;52.630;4.896;2023-03-17T10:43:43;6.95;;;4.32;;
66874;SDS011;53784;52.630;4.896;2023-03-17T10:46:17;7.68;;;4.10;;
66874;SDS011;53784;52.630;4.896;2023-03-17T10:48:42;7.70;;;4.53;;
66874;SDS011;53784;52.630;4.896;2023-03-17T10:51:17;8.30;;;4.40;;
66874;SDS011;53784;52.630;4.896;2023-03-17T10:53:45;10.43;;;4.90;;
66874;SDS011;53784;52.630;4.896;2023-03-17T10:56:19;8.15;;;4.93;;
66874;SDS011;53784;52.630;4.896;2023-03-17T10:58:47;9.32;;;5.28;;
66874;SDS011;53784;52.630;4.896;2023-03-17T11:06:53;9.02;;;5.60;;
66874;SDS011;53784;52.630;4.896;2023-03-17T11:09:19;11.07;;;5.25;;
66874;SDS011;53784;52.630;4.896;2023-03-17T11:11:49;8.70;;;5.63;;
66874;SDS011;53784;52.630;4.896;2023-03-17T11:14:23;8.95;;;5.30;;
66874;SDS011;53784;52.630;4.896;2023-03-17T11:19:27;8.90;;;5.70;;
66874;SDS011;53784;52.630;4.896;2023-03-17T11:22:07;10.15;;;5.07;;
66874;SDS011;53784;52.630;4.896;2023-03-17T11:24:36;9.63;;;5.43;;
66874;SDS011;53784;52.630;4.896;2023-03-17T11:27:15;9.68;;;5.53;;
66874;SDS011;53784;52.630;4.896;2023-03-17T11:37:19;11.30;;;5.90;;
66874;SDS011;53784;52.630;4.896;2023-03-17T11:42:36;9.77;;;5.25;;
66874;SDS011;53784;52.630;4.896;2023-03-17T11:45:19;9.88;;;5.82;;
66874;SDS011;53784;52.630;4.896;2023-03-17T11:58:05;10.80;;;5.60;;
66874;SDS011;53784;52.630;4.896;2023-03-17T12:00:57;8.88;;;5.35;;
66874;SDS011;53784;52.630;4.896;2023-03-17T12:05:50;11.93;;;5.75;;
66874;SDS011;53784;52.630;4.896;2023-03-17T12:08:21;9.30;;;5.30;;
66874;SDS011;53784;52.630;4.896;2023-03-17T12:10:52;10.63;;;5.20;;
66874;SDS011;53784;52.630;4.896;2023-03-17T12:13:21;11.82;;;5.55;;
66874;SDS011;53784;52.630;4.896;2023-03-17T12:16:04;12.00;;;5.55;;
66874;SDS011;53784;52.630;4.896;2023-03-17T12:21:11;11.13;;;5.32;;
66874;SDS011;53784;52.630;4.896;2023-03-17T12:23:49;10.18;;;5.20;;
66874;SDS011;53784;52.630;4.896;2023-03-17T12:31:18;12.03;;;5.30;;
66874;SDS011;53784;52.630;4.896;2023-03-17T12:33:56;9.70;;;5.43;;
66874;SDS011;53784;52.630;4.896;2023-03-17T12:36:23;13.15;;;5.43;;
66874;SDS011;53784;52.630;4.896;2023-03-17T12:38:51;10.55;;;5.45;;
66874;SDS011;53784;52.630;4.896;2023-03-17T12:44:00;11.73;;;5.35;;
66874;SDS011;53784;52.630;4.896;2023-03-17T12:46:45;13.00;;;5.65;;
66874;SDS011;53784;52.630;4.896;2023-03-17T12:54:25;7.50;;;4.70;;
66874;SDS011;53784;52.630;4.896;2023-03-17T12:56:51;10.93;;;5.22;;
66874;SDS011;53784;52.630;4.896;2023-03-17T12:59:18;9.05;;;4.90;;
66874;SDS011;53784;52.630;4.896;2023-03-17T13:01:54;10.65;;;5.13;;
66874;SDS011;53784;52.630;4.896;2023-03-17T13:04:25;13.18;;;5.22;;
66874;SDS011;53784;52.630;4.896;2023-03-17T13:11:59;14.57;;;5.68;;
66874;SDS011;53784;52.630;4.896;2023-03-17T13:14:46;10.75;;;5.30;;
66874;SDS011;53784;52.630;4.896;2023-03-17T13:19:55;10.95;;;5.47;;
66874;SDS011;53784;52.630;4.896;2023-03-17T13:27:47;15.35;;;7.07;;
66874;SDS011;53784;52.630;4.896;2023-03-17T13:33:34;25.92;;;14.10;;
66874;SDS011;53784;52.630;4.896;2023-03-17T13:35:39;15.90;;;8.07;;
66874;SDS011;53784;52.630;4.896;2023-03-17T13:43:30;15.82;;;8.00;;
66874;SDS011;53784;52.630;4.896;2023-03-17T13:49:00;11.35;;;5.68;;
66874;SDS011;53784;52.630;4.896;2023-03-17T13:51:29;14.90;;;5.72;;
66874;SDS011;53784;52.630;4.896;2023-03-17T13:54:05;13.00;;;5.90;;
66874;SDS011;53784;52.630;4.896;2023-03-17T13:59:13;11.98;;;5.38;;
66874;SDS011;53784;52.630;4.896;2023-03-17T14:01:40;12.70;;;5.90;;
66874;SDS011;53784;52.630;4.896;2023-03-17T14:04:11;13.40;;;6.20;;
66874;SDS011;53784;52.630;4.896;2023-03-17T14:06:40;11.63;;;5.72;;
66874;SDS011;53784;52.630;4.896;2023-03-17T14:09:06;11.52;;;5.50;;
66874;SDS011;53784;52.630;4.896;2023-03-17T14:11:34;15.35;;;5.85;;
66874;SDS011;53784;52.630;4.896;2023-03-17T14:14:11;12.20;;;5.28;;
66874;SDS011;53784;52.630;4.896;2023-03-17T14:16:46;13.02;;;5.60;;
66874;SDS011;53784;52.630;4.896;2023-03-17T14:19:23;10.18;;;5.25;;
66874;SDS011;53784;52.630;4.896;2023-03-17T14:21:50;13.32;;;5.88;;
66874;SDS011;53784;52.630;4.896;2023-03-17T14:24:31;11.93;;;5.67;;
66874;SDS011;53784;52.630;4.896;2023-03-17T14:26:59;11.18;;;5.70;;
66874;SDS011;53784;52.630;4.896;2023-03-17T14:29:28;11.90;;;5.68;;
66874;SDS011;53784;52.630;4.896;2023-03-17T14:34:40;11.77;;;5.77;;
66874;SDS011;53784;52.630;4.896;2023-03-17T14:37:08;10.75;;;5.75;;
66874;SDS011;53784;52.630;4.896;2023-03-17T14:39:34;13.38;;;6.18;;
66874;SDS011;53784;52.630;4.896;2023-03-17T14:42:00;11.60;;;5.50;;
66874;SDS011;53784;52.630;4.896;2023-03-17T14:44:26;13.95;;;5.85;;
66874;SDS011;53784;52.630;4.896;2023-03-17T14:46:58;12.48;;;6.68;;
66874;SDS011;53784;52.630;4.896;2023-03-17T14:49:24;13.35;;;6.57;;
66874;SDS011;53784;52.630;4.896;2023-03-17T14:51:50;12.05;;;6.55;;
66874;SDS011;53784;52.630;4.896;2023-03-17T14:54:22;16.38;;;7.38;;
66874;SDS011;53784;52.630;4.896;2023-03-17T14:56:50;15.82;;;6.82;;
66874;SDS011;53784;52.630;4.896;2023-03-17T14:59:35;12.82;;;6.47;;
66874;SDS011;53784;52.630;4.896;2023-03-17T15:02:02;11.48;;;5.70;;
66874;SDS011;53784;52.630;4.896;2023-03-17T15:07:25;13.00;;;6.40;;
66874;SDS011;53784;52.630;4.896;2023-03-17T15:09:58;15.43;;;7.13;;
66874;SDS011;53784;52.630;4.896;2023-03-17T15:12:25;13.75;;;6.43;;
66874;SDS011;53784;52.630;4.896;2023-03-17T15:14:52;11.87;;;6.43;;
66874;SDS011;53784;52.630;4.896;2023-03-17T15:17:21;12.85;;;6.53;;
66874;SDS011;53784;52.630;4.896;2023-03-17T15:19:50;14.27;;;6.72;;
66874;SDS011;53784;52.630;4.896;2023-03-17T15:27:39;14.85;;;7.20;;
66874;SDS011;53784;52.630;4.896;2023-03-17T15:30:05;14.45;;;6.82;;
66874;SDS011;53784;52.630;4.896;2023-03-17T15:32:30;13.35;;;6.63;;
66874;SDS011;53784;52.630;4.896;2023-03-17T15:34:56;14.20;;;6.82;;
66874;SDS011;53784;52.630;4.896;2023-03-17T15:37:23;13.85;;;7.40;;
66874;SDS011;53784;52.630;4.896;2023-03-17T15:39:49;12.52;;;6.63;;
66874;SDS011;53784;52.630;4.896;2023-03-17T15:42:15;15.20;;;6.97;;
66874;SDS011;53784;52.630;4.896;2023-03-17T15:44:43;14.93;;;7.30;;
66874;SDS011;53784;52.630;4.896;2023-03-17T15:47:19;13.27;;;7.63;;
66874;SDS011;53784;52.630;4.896;2023-03-17T15:49:45;13.75;;;7.80;;
66874;SDS011;53784;52.630;4.896;2023-03-17T15:52:21;12.55;;;7.32;;
66874;SDS011;53784;52.630;4.896;2023-03-17T15:54:51;13.63;;;7.85;;
66874;SDS011;53784;52.630;4.896;2023-03-17T15:57:16;14.50;;;8.23;;
66874;SDS011;53784;52.630;4.896;2023-03-17T15:59:41;13.43;;;8.17;;
66874;SDS011;53784;52.630;4.896;2023-03-17T16:02:28;14.18;;;8.48;;
66874;SDS011;53784;52.630;4.896;2023-03-17T16:04:52;13.57;;;8.25;;
66874;SDS011;53784;52.630;4.896;2023-03-17T16:07:19;13.77;;;8.27;;
66874;SDS011;53784;52.630;4.896;2023-03-17T16:09:45;16.33;;;8.50;;
66874;SDS011;53784;52.630;4.896;2023-03-17T16:12:11;14.50;;;8.15;;
66874;SDS011;53784;52.630;4.896;2023-03-17T16:14:36;16.35;;;9.05;;
66874;SDS011;53784;52.630;4.896;2023-03-17T16:17:02;14.50;;;8.67;;
66874;SDS011;53784;52.630;4.896;2023-03-17T16:19:28;13.70;;;8.18;;
66874;SDS011;53784;52.630;4.896;2023-03-17T16:21:53;15.50;;;8.40;;
66874;SDS011;53784;52.630;4.896;2023-03-17T16:24:23;17.55;;;8.93;;
66874;SDS011;53784;52.630;4.896;2023-03-17T16:26:48;14.18;;;7.90;;
66874;SDS011;53784;52.630;4.896;2023-03-17T16:29:16;14.50;;;8.50;;